Time;durP1;ratioP1;P1;durP2;ratioP2;P2;SDS_P1;SDS_P2;PMS_P1;PMS_P2;Temp;Humidity;BMP_temperature;BMP_pressure;BME280_temperature;BME280_humidity;BME280_pressure;Samples;Min_cycle;Max_cycle;Signal;HPM_P1;HPM_P2
2023/04/15 00:00:09;;;;;;;;;;;17.90;79.20;;;;;;5116976;28;19907;-48
2023/04/15 00:02:36;;;;;;;;;;;17.90;79.10;;;;;;5116370;28;19951;-48
2023/04/15 00:05:01;;;;;;;;;;;18.00;79.20;;;;;;5116613;28;19903;-50
2023/04/15 00:07:28;;;;;;;;;;;18.00;79.20;;;;;;5116544;27;19930;-52
2023/04/15 00:09:56;;;;;;;;;;;18.00;79.30;;;;;;5116202;28;20266;-48
2023/04/15 00:12:22;;;;;;;;;;;18.00;79.30;;;;;;5116498;28;19926;-50
2023/04/15 00:14:48;;;;;;;;;;;18.00;79.30;;;;;;5116396;27;20319;-49
2023/04/15 00:17:14;;;;;;;;;;;18.00;79.30;;;;;;5116005;28;19904;-49
2023/04/15 00:19:39;;;;;;;;;;;18.00;79.20;;;;;;5116125;27;20422;-50
2023/04/15 00:22:05;;;;;;;;;;;17.90;79.20;;;;;;5116041;28;19911;-50
2023/04/15 00:24:31;;;;;;;;;;;18.00;79.40;;;;;;5116264;28;20323;-49
2023/04/15 00:26:57;;;;;;;;;;;18.00;79.30;;;;;;5116429;28;19903;-49
2023/04/15 00:29:23;;;;;;;;;;;18.00;79.30;;;;;;5115885;28;19908;-47
2023/04/15 00:31:48;;;;;;;;;;;18.00;79.30;;;;;;5115892;28;19903;-47
2023/04/15 00:34:14;;;;;;;;;;;18.00;79.40;;;;;;5116124;28;19990;-49
2023/04/15 00:36:40;;;;;;;;;;;18.00;79.30;;;;;;5116013;28;19911;-50
2023/04/15 00:39:05;;;;;;;;;;;18.00;79.30;;;;;;5114756;28;19908;-48
2023/04/15 00:41:32;;;;;;;;;;;18.00;79.40;;;;;;5116009;28;19955;-50
2023/04/15 00:43:59;;;;;;;;;;;18.00;79.30;;;;;;5115665;28;19919;-48
2023/04/15 00:46:27;;;;;;;;;;;18.00;79.30;;;;;;5115861;28;20250;-51
2023/04/15 00:48:53;;;;;;;;;;;18.00;79.50;;;;;;5115330;28;19908;-51
2023/04/15 00:51:19;;;;;;;;;;;18.00;79.60;;;;;;5114768;28;19908;-46
2023/04/15 00:53:44;;;;;;;;;;;18.00;79.50;;;;;;5115679;28;19911;-47
2023/04/15 00:56:10;;;;;;;;;;;18.00;79.50;;;;;;5115659;28;19942;-49
2023/04/15 00:58:36;;;;;;;;;;;18.00;79.60;;;;;;5115590;28;20334;-52
2023/04/15 01:01:01;;;;;;;;;;;18.00;79.40;;;;;;5115535;28;19954;-48
2023/04/15 01:03:28;;;;;;;;;;;18.00;79.50;;;;;;5115162;28;19950;-49
2023/04/15 01:05:57;;;;;;;;;;;18.00;79.50;;;;;;5115824;28;19927;-46
2023/04/15 01:08:28;;;;;;;;;;;18.00;79.50;;;;;;5115315;28;19908;-47
2023/04/15 01:10:57;;;;;;;;;;;18.00;79.50;;;;;;5115036;28;19961;-49
2023/04/15 01:13:23;;;;;;;;;;;18.00;79.60;;;;;;5115303;28;19996;-50
2023/04/15 01:15:50;;;;;;;;;;;18.00;79.60;;;;;;5115324;28;19908;-50
2023/04/15 01:18:16;;;;;;;;;;;18.00;79.50;;;;;;5115058;28;19949;-49
2023/04/15 01:20:42;;;;;;;;;;;18.00;79.60;;;;;;5115171;28;19908;-46
2023/04/15 01:23:07;;;;;;;;;;;18.00;79.60;;;;;;5115176;28;19949;-50
2023/04/15 01:25:33;;;;;;;;;;;18.00;79.60;;;;;;5114769;28;19910;-46
2023/04/15 01:27:59;;;;;;;;;;;18.00;79.60;;;;;;5115001;28;20289;-51
2023/04/15 01:30:25;;;;;;;;;;;18.10;79.70;;;;;;5114806;28;19907;-49
2023/04/15 01:32:51;;;;;;;;;;;18.10;79.60;;;;;;5114908;28;19957;-47
2023/04/15 01:35:17;;;;;;;;;;;18.00;79.50;;;;;;5114943;28;19907;-46
2023/04/15 01:37:42;;;;;;;;;;;18.10;79.70;;;;;;5114835;28;19946;-50
2023/04/15 01:40:08;;;;;;;;;;;18.10;79.60;;;;;;5114876;28;19915;-47
2023/04/15 01:42:34;;;;;;;;;;;18.10;79.70;;;;;;5114745;27;19916;-50
2023/04/15 01:45:00;;;;;;;;;;;18.00;79.60;;;;;;5114519;28;19908;-47
2023/04/15 01:47:26;;;;;;;;;;;18.10;79.60;;;;;;5114671;28;19922;-53
2023/04/15 01:49:52;;;;;;;;;;;18.00;79.70;;;;;;5114442;28;19907;-52
2023/04/15 01:52:17;;;;;;;;;;;18.10;79.70;;;;;;5114643;28;20334;-49
2023/04/15 01:54:43;;;;;;;;;;;18.00;79.70;;;;;;5114746;28;19903;-52
2023/04/15 01:57:08;;;;;;;;;;;18.10;79.70;;;;;;5114406;28;19912;-51
2023/04/15 01:59:34;;;;;;;;;;;18.10;80.20;;;;;;5114712;28;20250;-49
2023/04/15 02:02:00;;;;;;;;;;;18.00;79.70;;;;;;5114223;28;19908;-48
2023/04/15 02:04:26;;;;;;;;;;;18.00;79.80;;;;;;5114635;28;20254;-45
2023/04/15 02:06:52;;;;;;;;;;;18.00;79.70;;;;;;5114505;28;19950;-46
2023/04/15 02:09:17;;;;;;;;;;;18.00;79.70;;;;;;5114630;28;19955;-50
2023/04/15 02:11:45;;;;;;;;;;;18.10;79.70;;;;;;5114523;28;20294;-47
2023/04/15 02:14:10;;;;;;;;;;;18.10;79.70;;;;;;5114865;28;19908;-49
2023/04/15 02:16:35;;;;;;;;;;;18.10;79.70;;;;;;5114233;28;20258;-47
2023/04/15 02:19:02;;;;;;;;;;;18.10;79.80;;;;;;5114235;28;19911;-51
2023/04/15 02:21:27;;;;;;;;;;;18.10;79.80;;;;;;5114504;28;20045;-50
2023/04/15 02:23:53;;;;;;;;;;;18.10;79.80;;;;;;5114488;28;19958;-52
2023/04/15 02:26:19;;;;;;;;;;;18.10;79.70;;;;;;5114429;28;19990;-49
2023/04/15 02:28:45;;;;;;;;;;;18.10;79.50;;;;;;5114022;28;19922;-48
2023/04/15 02:31:11;;;;;;;;;;;18.20;79.70;;;;;;5114409;28;19908;-47
2023/04/15 02:33:36;;;;;;;;;;;18.20;79.60;;;;;;5114336;28;20003;-50
2023/04/15 02:36:02;;;;;;;;;;;18.20;79.70;;;;;;5114324;28;19903;-49
2023/04/15 02:38:28;;;;;;;;;;;18.20;79.60;;;;;;5114277;27;19911;-48
2023/04/15 02:40:53;;;;;;;;;;;18.20;79.40;;;;;;5114324;28;20302;-51
2023/04/15 02:43:19;;;;;;;;;;;18.30;79.40;;;;;;5114158;28;19922;-48
2023/04/15 02:45:45;;;;;;;;;;;18.30;79.50;;;;;;5113945;28;20262;-49
2023/04/15 02:48:11;;;;;;;;;;;18.30;79.40;;;;;;5114198;28;19908;-51
2023/04/15 02:50:38;;;;;;;;;;;18.30;79.40;;;;;;5113920;28;19915;-48
2023/04/15 02:53:04;;;;;;;;;;;18.30;79.50;;;;;;5114141;28;19911;-45
2023/04/15 02:55:30;;;;;;;;;;;18.30;79.40;;;;;;5114159;28;19907;-48
2023/04/15 02:57:57;;;;;;;;;;;18.30;79.40;;;;;;5114179;28;20006;-49
2023/04/15 03:00:24;;;;;;;;;;;18.30;79.40;;;;;;5113847;27;19968;-47
2023/04/15 03:02:54;;;;;;;;;;;18.40;79.40;;;;;;5114086;28;19904;-51
2023/04/15 03:05:23;;;;;;;;;;;18.30;79.30;;;;;;5114127;28;19934;-49
2023/04/15 03:07:49;;;;;;;;;;;18.30;79.40;;;;;;5113957;28;19908;-47
2023/04/15 03:10:14;;;;;;;;;;;18.40;79.40;;;;;;5113985;28;20231;-48
2023/04/15 03:12:40;;;;;;;;;;;18.40;79.40;;;;;;5113859;28;20295;-46
2023/04/15 03:15:06;;;;;;;;;;;18.30;79.40;;;;;;5117054;28;20422;-49
2023/04/15 03:17:31;;;;;;;;;;;18.30;79.40;;;;;;5116336;28;19904;-50
2023/04/15 03:19:57;;;;;;;;;;;18.30;80.00;;;;;;5117264;28;19903;-48
2023/04/15 03:22:22;;;;;;;;;;;18.30;79.50;;;;;;5117520;28;19910;-46
2023/04/15 03:24:48;;;;;;;;;;;18.30;79.60;;;;;;5117487;28;19947;-51
2023/04/15 03:27:13;;;;;;;;;;;18.30;79.60;;;;;;5117007;28;19908;-51
2023/04/15 03:29:39;;;;;;;;;;;18.30;79.70;;;;;;5117016;28;20022;-47
2023/04/15 03:32:04;;;;;;;;;;;18.30;79.70;;;;;;5115515;28;20346;-49
2023/04/15 03:34:30;;;;;;;;;;;18.30;79.60;;;;;;5117200;28;20006;-48
2023/04/15 03:36:56;;;;;;;;;;;18.30;79.50;;;;;;5116719;28;19904;-52
2023/04/15 03:39:21;;;;;;;;;;;18.30;79.60;;;;;;5116873;28;19904;-49
2023/04/15 03:41:47;;;;;;;;;;;18.30;79.50;;;;;;5116964;27;19910;-51
2023/04/15 03:44:12;;;;;;;;;;;18.40;79.60;;;;;;5117118;28;19904;-47
2023/04/15 03:46:37;;;;;;;;;;;18.40;79.50;;;;;;5116750;28;20261;-49
2023/04/15 03:49:05;;;;;;;;;;;18.40;79.20;;;;;;5116616;28;19908;-54
2023/04/15 03:51:31;;;;;;;;;;;18.40;79.40;;;;;;5116595;27;19912;-50
2023/04/15 03:53:57;;;;;;;;;;;18.40;79.40;;;;;;5116561;28;19904;-49
2023/04/15 03:56:23;;;;;;;;;;;18.40;79.60;;;;;;5116901;28;19956;-51
2023/04/15 03:58:48;;;;;;;;;;;18.50;79.20;;;;;;5117167;28;19907;-49
2023/04/15 04:01:15;;;;;;;;;;;18.50;79.30;;;;;;5114102;28;19912;-47
2023/04/15 04:03:40;;;;;;;;;;;18.50;78.60;;;;;;5114733;28;19916;-48
2023/04/15 04:06:07;;;;;;;;;;;18.40;74.80;;;;;;5114432;28;19918;-47
2023/04/15 04:08:32;;;;;;;;;;;18.50;77.00;;;;;;5116174;28;19915;-48
2023/04/15 04:10:57;;;;;;;;;;;18.60;78.20;;;;;;5116279;28;19912;-46
2023/04/15 04:13:23;;;;;;;;;;;18.60;78.50;;;;;;5116308;28;19908;-45
2023/04/15 04:15:48;;;;;;;;;;;18.60;78.60;;;;;;5116256;28;19995;-48
2023/04/15 04:18:14;;;;;;;;;;;18.60;78.60;;;;;;5116218;28;19915;-48
2023/04/15 04:20:40;;;;;;;;;;;18.70;78.70;;;;;;5114994;28;19916;-46
2023/04/15 04:23:05;;;;;;;;;;;18.70;78.80;;;;;;5114340;28;19912;-46
2023/04/15 04:25:31;;;;;;;;;;;18.80;78.70;;;;;;5115514;28;19908;-50
2023/04/15 04:27:57;;;;;;;;;;;18.80;78.60;;;;;;5114694;28;19919;-48
2023/04/15 04:30:23;;;;;;;;;;;18.80;78.60;;;;;;5115807;28;20266;-47
2023/04/15 04:32:48;;;;;;;;;;;18.80;78.40;;;;;;5115950;28;19988;-45
2023/04/15 04:35:14;;;;;;;;;;;18.90;78.50;;;;;;5114523;28;19907;-51
2023/04/15 04:37:40;;;;;;;;;;;18.80;78.50;;;;;;5114173;28;19912;-48
2023/04/15 04:40:06;;;;;;;;;;;18.90;78.50;;;;;;5113530;28;20274;-48
2023/04/15 04:42:32;;;;;;;;;;;18.90;78.30;;;;;;5112242;28;20347;-47
2023/04/15 04:44:57;;;;;;;;;;;18.90;78.30;;;;;;5113442;28;19908;-50
2023/04/15 04:47:23;;;;;;;;;;;19.00;78.30;;;;;;5113844;28;19919;-49
2023/04/15 04:49:48;;;;;;;;;;;19.00;78.20;;;;;;5113700;28;19955;-51
2023/04/15 04:52:14;;;;;;;;;;;19.00;78.30;;;;;;5113943;28;19908;-49
2023/04/15 04:54:39;;;;;;;;;;;19.00;78.40;;;;;;5115565;28;19912;-47
2023/04/15 04:57:06;;;;;;;;;;;19.00;78.40;;;;;;5115928;28;20323;-48
2023/04/15 04:59:32;;;;;;;;;;;19.10;78.30;;;;;;5115819;28;20018;-49
2023/04/15 05:01:57;;;;;;;;;;;19.10;78.20;;;;;;5115499;28;19947;-49
2023/04/15 05:04:23;;;;;;;;;;;19.10;78.20;;;;;;5115140;28;19908;-48
2023/04/15 05:06:49;;;;;;;;;;;19.20;78.00;;;;;;5115403;28;20432;-49
2023/04/15 05:09:14;;;;;;;;;;;19.30;78.00;;;;;;5114913;28;19912;-51
2023/04/15 05:11:40;;;;;;;;;;;19.40;77.80;;;;;;5115218;28;20086;-47
2023/04/15 05:14:05;;;;;;;;;;;19.40;77.60;;;;;;5115040;28;19908;-48
2023/04/15 05:16:31;;;;;;;;;;;19.40;77.60;;;;;;5115156;28;20410;-47
2023/04/15 05:18:56;;;;;;;;;;;19.30;77.50;;;;;;5114888;28;19908;-47
2023/04/15 05:21:22;;;;;;;;;;;19.30;77.80;;;;;;5115045;28;19922;-50
2023/04/15 05:23:47;;;;;;;;;;;19.20;77.90;;;;;;5114795;28;19960;-50
2023/04/15 05:26:13;;;;;;;;;;;19.10;78.10;;;;;;5114666;28;19933;-49
2023/04/15 05:28:38;;;;;;;;;;;19.00;78.50;;;;;;5114888;28;20251;-47
2023/04/15 05:31:04;;;;;;;;;;;18.90;78.60;;;;;;5115171;28;19912;-47
2023/04/15 05:33:30;;;;;;;;;;;18.90;78.70;;;;;;5115049;28;19994;-49
2023/04/15 05:35:55;;;;;;;;;;;18.90;78.80;;;;;;5114067;28;19907;-49
2023/04/15 05:38:21;;;;;;;;;;;18.90;78.70;;;;;;5114414;28;19955;-49
2023/04/15 05:40:46;;;;;;;;;;;19.00;78.80;;;;;;5114413;28;19918;-48
2023/04/15 05:43:12;;;;;;;;;;;19.00;78.70;;;;;;5114141;28;20375;-47
2023/04/15 05:45:37;;;;;;;;;;;19.00;78.60;;;;;;5114717;28;20308;-49
2023/04/15 05:48:03;;;;;;;;;;;19.00;78.50;;;;;;5114602;28;19918;-52
2023/04/15 05:50:28;;;;;;;;;;;19.10;78.40;;;;;;5114221;28;19912;-53
2023/04/15 05:52:54;;;;;;;;;;;19.10;78.30;;;;;;5113262;28;19958;-50
2023/04/15 05:55:20;;;;;;;;;;;19.20;78.20;;;;;;5114450;28;19918;-48
2023/04/15 05:57:46;;;;;;;;;;;19.20;78.10;;;;;;5114495;28;19908;-48
2023/04/15 06:00:12;;;;;;;;;;;19.20;78.20;;;;;;5114797;28;20400;-49
2023/04/15 06:02:38;;;;;;;;;;;19.20;77.90;;;;;;5112808;28;19916;-51
2023/04/15 06:05:08;;;;;;;;;;;19.30;77.90;;;;;;5114049;28;19908;-50
2023/04/15 06:07:34;;;;;;;;;;;19.30;77.90;;;;;;5115759;28;19929;-46
2023/04/15 06:09:59;;;;;;;;;;;19.40;77.80;;;;;;5125659;28;20354;-48
2023/04/15 06:12:25;;;;;;;;;;;19.30;77.90;;;;;;5116545;28;19926;-50
2023/04/15 06:14:50;;;;;;;;;;;19.40;77.70;;;;;;5134482;28;20314;-47
2023/04/15 06:17:17;;;;;;;;;;;19.40;77.70;;;;;;5129700;28;20006;-52
2023/04/15 06:19:43;;;;;;;;;;;19.40;77.60;;;;;;5127780;28;20019;-48
2023/04/15 06:22:08;;;;;;;;;;;19.40;77.70;;;;;;5125369;28;19971;-49
2023/04/15 06:24:35;;;;;;;;;;;19.40;77.80;;;;;;5119820;28;19933;-48
2023/04/15 06:27:02;;;;;;;;;;;19.40;77.80;;;;;;5113988;28;19908;-47
2023/04/15 06:29:27;;;;;;;;;;;19.40;78.10;;;;;;5126170;28;20067;-47
2023/04/15 06:31:53;;;;;;;;;;;19.40;78.00;;;;;;5122133;28;20269;-51
2023/04/15 06:34:18;;;;;;;;;;;19.30;77.90;;;;;;5129374;27;19908;-50
2023/04/15 06:36:44;;;;;;;;;;;19.30;78.10;;;;;;5125526;28;19930;-49
2023/04/15 06:39:10;;;;;;;;;;;19.30;78.20;;;;;;5127776;27;19915;-50
2023/04/15 06:41:35;;;;;;;;;;;19.30;78.30;;;;;;5117201;27;19912;-48
2023/04/15 06:44:01;;;;;;;;;;;19.40;78.10;;;;;;5114469;28;20345;-49
2023/04/15 06:46:26;;;;;;;;;;;19.40;78.20;;;;;;5113893;27;20278;-50
2023/04/15 06:48:52;;;;;;;;;;;19.50;77.90;;;;;;5120754;27;19940;-48
2023/04/15 06:51:18;;;;;;;;;;;19.20;75.30;;;;;;5127033;27;19935;-47
2023/04/15 06:53:43;;;;;;;;;;;19.30;77.50;;;;;;5113932;28;19912;-46
2023/04/15 06:56:09;;;;;;;;;;;19.30;77.70;;;;;;5122155;27;19916;-52
2023/04/15 06:58:35;;;;;;;;;;;19.30;77.60;;;;;;5117830;27;19918;-49
2023/04/15 07:01:01;;;;;;;;;;;19.30;77.70;;;;;;5117738;28;19918;-48
2023/04/15 07:03:27;;;;;;;;;;;19.30;77.70;;;;;;5116391;28;19919;-48
2023/04/15 07:05:53;;;;;;;;;;;19.30;77.70;;;;;;5114115;27;19959;-50
2023/04/15 07:08:19;;;;;;;;;;;19.20;76.30;;;;;;5116892;27;20011;-52
2023/04/15 07:10:45;;;;;;;;;;;19.30;77.40;;;;;;5117512;28;19919;-49
2023/04/15 07:13:10;;;;;;;;;;;19.20;77.50;;;;;;5117165;28;20350;-51
2023/04/15 07:15:36;;;;;;;;;;;19.20;77.50;;;;;;5117251;28;19908;-50
2023/04/15 07:18:01;;;;;;;;;;;19.20;77.50;;;;;;5117121;27;19953;-49
2023/04/15 07:20:27;;;;;;;;;;;19.20;77.50;;;;;;5117045;27;19911;-52
2023/04/15 07:22:52;;;;;;;;;;;19.20;77.60;;;;;;5117000;28;20354;-49
2023/04/15 07:25:18;;;;;;;;;;;19.20;77.60;;;;;;5117082;28;19908;-52
2023/04/15 07:27:44;;;;;;;;;;;19.20;77.60;;;;;;5117074;27;19915;-48
2023/04/15 07:30:10;;;;;;;;;;;19.20;77.60;;;;;;5117092;28;19957;-49
2023/04/15 07:32:35;;;;;;;;;;;19.20;77.60;;;;;;5117024;28;19998;-49
2023/04/15 07:35:02;;;;;;;;;;;19.20;77.60;;;;;;5116913;28;19908;-50
2023/04/15 07:37:28;;;;;;;;;;;19.20;77.70;;;;;;5116923;28;19908;-51
2023/04/15 07:39:54;;;;;;;;;;;19.10;77.70;;;;;;5116943;28;19960;-48
2023/04/15 07:42:19;;;;;;;;;;;19.10;77.70;;;;;;5116398;28;20549;-48
2023/04/15 07:44:45;;;;;;;;;;;19.10;77.70;;;;;;5116728;28;20010;-48
2023/04/15 07:47:11;;;;;;;;;;;19.10;77.80;;;;;;5116703;28;20284;-49
2023/04/15 07:49:36;;;;;;;;;;;19.10;77.80;;;;;;5116430;28;19938;-46
2023/04/15 07:52:02;;;;;;;;;;;19.10;77.80;;;;;;5116409;28;19912;-51
2023/04/15 07:54:28;;;;;;;;;;;19.10;77.90;;;;;;5116527;28;19908;-47
2023/04/15 07:56:53;;;;;;;;;;;19.00;77.80;;;;;;5116366;28;19911;-51
2023/04/15 07:59:19;;;;;;;;;;;19.00;78.30;;;;;;5116077;28;19908;-46
2023/04/15 08:01:44;;;;;;;;;;;19.00;78.00;;;;;;5116306;28;20350;-47
2023/04/15 08:04:09;;;;;;;;;;;19.00;78.10;;;;;;5116530;28;20309;-51
2023/04/15 08:06:38;;;;;;;;;;;19.00;78.00;;;;;;5116408;28;19959;-46
2023/04/15 08:09:04;;;;;;;;;;;19.00;78.10;;;;;;5116218;28;19935;-47
2023/04/15 08:11:30;;;;;;;;;;;19.00;78.10;;;;;;5116037;28;20070;-49
2023/04/15 08:13:56;;;;;;;;;;;19.00;78.00;;;;;;5115911;28;20372;-46
2023/04/15 08:16:22;;;;;;;;;;;19.00;78.10;;;;;;5116394;28;19940;-49
2023/04/15 08:18:48;;;;;;;;;;;19.00;78.20;;;;;;5116282;28;19915;-47
2023/04/15 08:21:14;;;;;;;;;;;19.00;78.10;;;;;;5115950;28;19908;-46
2023/04/15 08:23:40;;;;;;;;;;;19.00;78.20;;;;;;5116107;28;20312;-48
2023/04/15 08:26:06;;;;;;;;;;;19.00;78.10;;;;;;5115780;28;19915;-51
2023/04/15 08:28:31;;;;;;;;;;;19.00;78.20;;;;;;5114600;28;19962;-52
2023/04/15 08:30:57;;;;;;;;;;;19.00;78.30;;;;;;5115898;28;19951;-52
2023/04/15 08:33:22;;;;;;;;;;;19.00;78.20;;;;;;5115806;28;20311;-50
2023/04/15 08:35:48;;;;;;;;;;;19.00;78.20;;;;;;5115857;28;20397;-51
2023/04/15 08:38:13;;;;;;;;;;;18.90;78.30;;;;;;5115731;28;20265;-49
2023/04/15 08:40:40;;;;;;;;;;;18.90;78.20;;;;;;5115793;28;20010;-50
2023/04/15 08:43:07;;;;;;;;;;;18.90;78.30;;;;;;5115728;28;19972;-50
2023/04/15 08:45:35;;;;;;;;;;;18.90;78.20;;;;;;5115274;27;19908;-49
2023/04/15 08:48:02;;;;;;;;;;;19.00;78.40;;;;;;5115000;28;19929;-51
2023/04/15 08:50:28;;;;;;;;;;;19.00;78.30;;;;;;5115313;28;20316;-50
2023/04/15 08:52:54;;;;;;;;;;;18.90;78.30;;;;;;5114945;28;19907;-50
2023/04/15 08:55:20;;;;;;;;;;;19.00;78.30;;;;;;5115478;28;19927;-50
2023/04/15 08:57:45;;;;;;;;;;;19.00;78.20;;;;;;5115215;28;20006;-49
2023/04/15 09:00:12;;;;;;;;;;;19.00;78.30;;;;;;5115053;28;20320;-51
2023/04/15 09:02:38;;;;;;;;;;;19.00;78.30;;;;;;5114830;28;20373;-51
2023/04/15 09:05:05;;;;;;;;;;;19.00;78.20;;;;;;5113385;28;19908;-50
2023/04/15 09:07:32;;;;;;;;;;;18.90;78.20;;;;;;5115097;28;19911;-49
2023/04/15 09:09:58;;;;;;;;;;;18.90;78.20;;;;;;5113672;28;20220;-49
2023/04/15 09:12:23;;;;;;;;;;;18.90;78.30;;;;;;5114133;28;19915;-48
2023/04/15 09:14:49;;;;;;;;;;;18.90;78.30;;;;;;5115047;28;20275;-53
2023/04/15 09:17:18;;;;;;;;;;;19.00;78.20;;;;;;5114671;28;19915;-49
2023/04/15 09:19:43;;;;;;;;;;;19.00;78.70;;;;;;5115011;28;19908;-47
2023/04/15 09:22:09;;;;;;;;;;;19.00;78.20;;;;;;5114962;28;19908;-48
2023/04/15 09:24:37;;;;;;;;;;;19.00;78.10;;;;;;5114731;28;19914;-46
2023/04/15 09:27:02;;;;;;;;;;;19.00;78.10;;;;;;5115001;28;20310;-48
2023/04/15 09:29:28;;;;;;;;;;;19.00;78.00;;;;;;5113419;28;19962;-47
2023/04/15 09:31:53;;;;;;;;;;;19.10;78.10;;;;;;5113324;28;20271;-51
2023/04/15 09:34:19;;;;;;;;;;;19.10;78.00;;;;;;5114699;28;19959;-50
2023/04/15 09:36:48;;;;;;;;;;;19.10;78.10;;;;;;5114474;28;19908;-50
2023/04/15 09:39:14;;;;;;;;;;;19.10;77.90;;;;;;5114220;28;20422;-53
2023/04/15 09:41:40;;;;;;;;;;;19.10;78.00;;;;;;5114259;28;20396;-51
2023/04/15 09:44:06;;;;;;;;;;;19.10;77.90;;;;;;5114079;28;19920;-51
2023/04/15 09:46:42;;;;;;;;;;;19.10;77.90;;;;;;5114469;28;19915;-49
2023/04/15 09:49:08;;;;;;;;;;;19.10;77.80;;;;;;5114580;28;19912;-47
2023/04/15 09:51:34;;;;;;;;;;;19.20;77.90;;;;;;5114407;28;20400;-45
2023/04/15 09:53:59;;;;;;;;;;;19.20;78.00;;;;;;5114577;28;19930;-47
2023/04/15 09:56:31;;;;;;;;;;;19.10;78.00;;;;;;5113051;28;19998;-48
2023/04/15 09:58:56;;;;;;;;;;;19.10;77.90;;;;;;5113849;28;20277;-52
2023/04/15 10:01:22;;;;;;;;;;;19.10;77.90;;;;;;5112350;28;19915;-48
2023/04/15 10:03:47;;;;;;;;;;;19.10;77.90;;;;;;5114798;28;19911;-49
2023/04/15 10:06:13;;;;;;;;;;;19.10;77.90;;;;;;5111532;28;20433;-51
2023/04/15 10:08:40;;;;;;;;;;;19.00;74.70;;;;;;5112798;28;19918;-50
2023/04/15 10:11:06;;;;;;;;;;;18.90;75.50;;;;;;5112974;28;19916;-45
2023/04/15 10:13:33;;;;;;;;;;;19.00;77.30;;;;;;5113005;28;19925;-52
2023/04/15 10:16:01;;;;;;;;;;;19.00;77.50;;;;;;5114189;28;19908;-45
2023/04/15 10:18:27;;;;;;;;;;;19.00;77.80;;;;;;5113035;28;19962;-48
2023/04/15 10:20:53;;;;;;;;;;;19.00;77.70;;;;;;5112733;28;19911;-52
2023/04/15 10:23:20;;;;;;;;;;;19.00;77.70;;;;;;5125607;27;19911;-49
2023/04/15 10:25:46;;;;;;;;;;;19.00;77.70;;;;;;5120258;27;19967;-47
2023/04/15 10:28:13;;;;;;;;;;;19.00;77.70;;;;;;5133632;27;19959;-49
2023/04/15 10:30:38;;;;;;;;;;;19.00;77.70;;;;;;5120753;27;20379;-47
2023/04/15 10:33:04;;;;;;;;;;;19.00;77.80;;;;;;5118024;28;19944;-49
2023/04/15 10:35:31;;;;;;;;;;;19.00;77.80;;;;;;5120580;27;20309;-46
2023/04/15 10:37:57;;;;;;;;;;;19.00;77.90;;;;;;5127216;27;19977;-46
2023/04/15 10:40:26;;;;;;;;;;;19.00;77.80;;;;;;5114307;28;20378;-48
2023/04/15 10:42:55;;;;;;;;;;;19.00;77.80;;;;;;5116122;28;19920;-47
2023/04/15 10:45:21;;;;;;;;;;;19.00;77.90;;;;;;5117533;28;19919;-51
2023/04/15 10:47:50;;;;;;;;;;;19.00;77.90;;;;;;5117661;28;19971;-50
2023/04/15 10:50:17;;;;;;;;;;;19.00;77.90;;;;;;5116152;28;19911;-48
2023/04/15 10:52:43;;;;;;;;;;;19.00;78.00;;;;;;5116423;28;19922;-46
2023/04/15 10:55:19;;;;;;;;;;;19.00;77.90;;;;;;5117699;28;19911;-51
2023/04/15 10:57:44;;;;;;;;;;;19.00;78.00;;;;;;5117543;28;19953;-47
2023/04/15 11:00:11;;;;;;;;;;;19.00;77.90;;;;;;5117286;28;19912;-49
2023/04/15 11:02:37;;;;;;;;;;;19.00;78.00;;;;;;5115742;28;19912;-47
2023/04/15 11:05:03;;;;;;;;;;;19.00;78.00;;;;;;5115363;28;19941;-47
2023/04/15 11:07:35;;;;;;;;;;;19.00;77.70;;;;;;5128533;27;19911;-47
2023/04/15 11:10:01;;;;;;;;;;;19.00;78.10;;;;;;5135938;27;19932;-49
2023/04/15 11:12:36;;;;;;;;;;;19.00;78.40;;;;;;5117155;28;19908;-48
2023/04/15 11:15:21;;;;;;;;;;;18.90;78.40;;;;;;5117333;28;19908;-51
2023/04/15 11:17:46;;;;;;;;;;;18.90;78.60;;;;;;5117514;28;19908;-46
2023/04/15 11:20:14;;;;;;;;;;;18.90;78.70;;;;;;5117018;28;20357;-47
2023/04/15 11:22:46;;;;;;;;;;;18.80;78.80;;;;;;5116205;28;20371;-51
2023/04/15 11:25:21;;;;;;;;;;;18.80;78.90;;;;;;5115226;28;19914;-50
2023/04/15 11:27:46;;;;;;;;;;;18.80;79.10;;;;;;5115753;28;19919;-49
2023/04/15 11:30:19;;;;;;;;;;;18.70;79.10;;;;;;5116980;28;19912;-48
2023/04/15 11:32:44;;;;;;;;;;;18.70;79.10;;;;;;5117017;28;20374;-50
2023/04/15 11:35:09;;;;;;;;;;;18.70;79.20;;;;;;5115489;28;19919;-48
2023/04/15 11:37:35;;;;;;;;;;;18.60;79.40;;;;;;5115373;28;19915;-48
2023/04/15 11:40:02;;;;;;;;;;;18.50;79.50;;;;;;5116731;28;19952;-51
2023/04/15 11:42:27;;;;;;;;;;;18.50;79.70;;;;;;5116756;28;19980;-49
2023/04/15 11:45:13;;;;;;;;;;;18.50;79.80;;;;;;5116609;28;19912;-47
2023/04/15 11:47:39;;;;;;;;;;;18.40;79.90;;;;;;5115911;27;19919;-47
2023/04/15 11:50:15;;;;;;;;;;;18.40;80.00;;;;;;5116865;28;20006;-45
2023/04/15 11:52:51;;;;;;;;;;;18.40;80.10;;;;;;5117021;28;19999;-54
2023/04/15 11:55:16;;;;;;;;;;;18.40;80.10;;;;;;5116291;28;19999;-50
2023/04/15 11:57:42;;;;;;;;;;;18.40;80.00;;;;;;5116637;28;20333;-49
2023/04/15 12:00:08;;;;;;;;;;;18.50;80.10;;;;;;5116876;28;19914;-48
2023/04/15 12:02:35;;;;;;;;;;;18.50;80.00;;;;;;5116399;28;19907;-49
2023/04/15 12:05:04;;;;;;;;;;;18.60;80.00;;;;;;5116346;28;19911;-51
2023/04/15 12:07:30;;;;;;;;;;;18.60;79.90;;;;;;5113269;28;19930;-48
2023/04/15 12:09:56;;;;;;;;;;;18.70;79.80;;;;;;5124620;27;19920;-49
2023/04/15 12:12:25;;;;;;;;;;;18.70;79.60;;;;;;5115774;28;20318;-46
2023/04/15 12:14:51;;;;;;;;;;;18.80;79.50;;;;;;5104865;28;19907;-52
2023/04/15 12:17:17;;;;;;;;;;;18.80;79.40;;;;;;5116195;28;19915;-50
2023/04/15 12:19:44;;;;;;;;;;;18.90;79.40;;;;;;5113807;27;19916;-46
2023/04/15 12:22:14;;;;;;;;;;;18.90;79.30;;;;;;5115581;27;19908;-49
2023/04/15 12:24:41;;;;;;;;;;;18.90;79.30;;;;;;5116139;28;19908;-49
2023/04/15 12:27:07;;;;;;;;;;;19.00;79.30;;;;;;5111299;28;20002;-51
2023/04/15 12:29:34;;;;;;;;;;;19.00;79.40;;;;;;5119751;27;19916;-49
2023/04/15 12:32:08;;;;;;;;;;;19.00;79.40;;;;;;5120231;27;20271;-51
2023/04/15 12:34:35;;;;;;;;;;;19.00;79.40;;;;;;5117952;27;19912;-52
2023/04/15 12:37:01;;;;;;;;;;;19.10;79.40;;;;;;5119290;27;19916;-50
2023/04/15 12:39:28;;;;;;;;;;;19.10;79.50;;;;;;5110862;28;19919;-52
2023/04/15 12:41:53;;;;;;;;;;;19.10;79.50;;;;;;5113319;28;19911;-48
2023/04/15 12:44:21;;;;;;;;;;;19.10;79.40;;;;;;5125549;27;19923;-52
2023/04/15 12:46:47;;;;;;;;;;;19.10;79.40;;;;;;5133211;27;19908;-51
2023/04/15 12:49:14;;;;;;;;;;;19.20;79.30;;;;;;5122143;27;21539;-47
2023/04/15 12:51:40;;;;;;;;;;;19.20;79.10;;;;;;5115030;27;19965;-49
2023/04/15 12:54:06;;;;;;;;;;;19.20;79.00;;;;;;5115007;28;19908;-51
2023/04/15 12:56:31;;;;;;;;;;;19.20;79.40;;;;;;5116878;27;19934;-51
2023/04/15 12:58:57;;;;;;;;;;;19.30;79.40;;;;;;5134872;27;19907;-51
2023/04/15 13:01:22;;;;;;;;;;;19.40;79.40;;;;;;5134068;27;20376;-51
2023/04/15 13:03:49;;;;;;;;;;;19.40;79.30;;;;;;5135448;27;19915;-48
2023/04/15 13:06:15;;;;;;;;;;;19.40;79.40;;;;;;5135298;27;20264;-52
2023/04/15 13:08:41;;;;;;;;;;;19.40;79.40;;;;;;5135572;27;19919;-51
2023/04/15 13:11:06;;;;;;;;;;;19.40;79.30;;;;;;5135267;27;19915;-50
2023/04/15 13:13:32;;;;;;;;;;;19.40;79.40;;;;;;5131961;27;19912;-49
2023/04/15 13:15:58;;;;;;;;;;;19.40;79.30;;;;;;5135603;27;19913;-48
2023/04/15 13:18:23;;;;;;;;;;;19.40;79.40;;;;;;5134294;27;20273;-51
2023/04/15 13:20:50;;;;;;;;;;;19.40;79.30;;;;;;5135395;27;19926;-48
2023/04/15 13:23:15;;;;;;;;;;;19.40;79.20;;;;;;5135503;27;19973;-50
2023/04/15 13:25:41;;;;;;;;;;;19.40;79.20;;;;;;5135421;27;19919;-50
2023/04/15 13:28:06;;;;;;;;;;;19.40;79.20;;;;;;5134768;27;20281;-52
2023/04/15 13:30:32;;;;;;;;;;;19.40;79.20;;;;;;5133959;27;19907;-47
2023/04/15 13:32:57;;;;;;;;;;;19.50;79.20;;;;;;5134943;27;19929;-48
2023/04/15 13:35:23;;;;;;;;;;;19.50;79.60;;;;;;5134830;27;19907;-52
2023/04/15 13:37:48;;;;;;;;;;;19.50;79.00;;;;;;5134815;27;20366;-53
2023/04/15 13:40:14;;;;;;;;;;;19.60;78.80;;;;;;5134935;27;19908;-51
2023/04/15 13:42:41;;;;;;;;;;;19.70;78.70;;;;;;5135021;27;19927;-52
2023/04/15 13:45:07;;;;;;;;;;;19.70;78.60;;;;;;5135159;27;20372;-47
2023/04/15 13:47:32;;;;;;;;;;;19.70;78.40;;;;;;5134926;27;20001;-51
2023/04/15 13:49:58;;;;;;;;;;;19.80;78.30;;;;;;5134770;27;19907;-47
2023/04/15 13:52:23;;;;;;;;;;;19.80;78.30;;;;;;5135237;27;20239;-50
2023/04/15 13:54:49;;;;;;;;;;;19.80;78.30;;;;;;5134997;27;19907;-48
2023/04/15 13:57:14;;;;;;;;;;;19.70;78.30;;;;;;5134168;27;19914;-51
2023/04/15 13:59:40;;;;;;;;;;;19.70;78.50;;;;;;5114655;27;19911;-51
2023/04/15 14:02:05;;;;;;;;;;;19.70;78.50;;;;;;5120972;27;19912;-46
2023/04/15 14:04:31;;;;;;;;;;;19.70;78.60;;;;;;5126054;27;19929;-51
2023/04/15 14:06:57;;;;;;;;;;;19.70;78.60;;;;;;5119380;28;19911;-50
2023/04/15 14:09:23;;;;;;;;;;;19.70;78.80;;;;;;5114094;28;19985;-51